Time;durP1;ratioP1;P1;durP2;ratioP2;P2;SDS_P1;SDS_P2;PMS_P1;PMS_P2;Temp;Humidity;BMP_temperature;BMP_pressure;BME280_temperature;BME280_humidity;BME280_pressure;Samples;Min_cycle;Max_cycle;Signal;HPM_P1;HPM_P2
2022/05/10 00:00:23;;;;;;;14.33;7.90;;;18.30;88.50;;;;;;5073806;28;20205;-78
2022/05/10 00:02:54;;;;;;;13.67;7.97;;;18.30;88.20;;;;;;5073875;28;20172;-77
2022/05/10 00:05:28;;;;;;;10.53;7.40;;;18.50;88.30;;;;;;5073685;28;20183;-76
2022/05/10 00:07:56;;;;;;;11.73;6.63;;;18.60;87.30;;;;;;5073447;28;20174;-78
2022/05/10 00:10:23;;;;;;;15.07;7.07;;;18.80;87.20;;;;;;5072321;28;20194;-79
2022/05/10 00:12:51;;;;;;;12.50;6.20;;;18.90;86.80;;;;;;5073191;28;20179;-79
2022/05/10 00:15:22;;;;;;;9.97;5.60;;;19.00;86.70;;;;;;5073607;28;20580;-79
2022/05/10 00:17:49;;;;;;;12.57;4.47;;;19.20;85.80;;;;;;5073336;28;20194;-79
2022/05/10 00:20:22;;;;;;;9.50;4.03;;;19.30;85.30;;;;;;5073342;28;20175;-79
2022/05/10 00:22:50;;;;;;;14.67;3.40;;;19.50;84.10;;;;;;5073671;28;20179;-75
2022/05/10 00:25:24;;;;;;;13.10;3.90;;;19.70;79.40;;;;;;5072131;28;20600;-81
2022/05/10 00:27:51;;;;;;;9.47;2.43;;;19.80;80.80;;;;;;5073177;28;20175;-76
2022/05/10 00:30:19;;;;;;;14.93;2.40;;;20.00;77.90;;;;;;5073399;28;20195;-79
2022/05/10 00:32:47;;;;;;;11.73;2.70;;;20.20;75.50;;;;;;5073301;28;20630;-76
2022/05/10 00:35:20;;;;;;;11.10;2.27;;;20.40;74.30;;;;;;5073422;28;20168;-80
2022/05/10 00:37:50;;;;;;;7.47;1.67;;;20.70;73.20;;;;;;5072977;28;20186;-78
2022/05/10 00:40:25;;;;;;;6.50;1.50;;;20.80;70.30;;;;;;5072745;28;20198;-76
2022/05/10 00:43:11;;;;;;;13.47;1.60;;;20.80;69.30;;;;;;5072922;28;20237;-76
2022/05/10 00:46:00;;;;;;;11.23;1.87;;;20.70;69.90;;;;;;5073126;28;20178;-79
2022/05/10 00:48:34;;;;;;;11.13;2.30;;;20.60;69.50;;;;;;5073050;28;20585;-79
2022/05/10 00:51:34;;;;;;;7.73;1.50;;;20.60;69.00;;;;;;5072097;28;20219;-76
2022/05/10 00:54:42;;;;;;;5.97;1.67;;;20.70;68.30;;;;;;5072223;28;20225;-76
2022/05/10 00:57:25;;;;;;;9.50;1.87;;;20.80;67.10;;;;;;5072962;28;20167;-75
2022/05/10 01:00:14;;;;;;;10.87;1.93;;;20.80;67.30;;;;;;5072815;28;20249;-75
2022/05/10 01:02:47;;;;;;;10.53;1.97;;;20.80;65.50;;;;;;5072753;28;20198;-76
2022/05/10 01:05:27;;;;;;;8.80;1.80;;;20.80;66.60;;;;;;5072894;28;20186;-75
2022/05/10 01:08:17;;;;;;;5.90;1.73;;;20.80;66.90;;;;;;5071531;28;20185;-76
2022/05/10 01:10:55;;;;;;;11.27;2.00;;;20.90;67.70;;;;;;5071985;28;20202;-75
2022/05/10 01:13:46;;;;;;;4.20;1.40;;;21.10;67.50;;;;;;5051770;28;20176;-74
2022/05/10 01:16:17;;;;;;;11.23;1.80;;;21.30;65.80;;;;;;5052679;28;20179;-76
2022/05/10 01:18:46;;;;;;;7.43;1.60;;;21.40;65.20;;;;;;5052324;28;20275;-74
2022/05/10 01:21:44;;;;;;;14.27;3.73;;;21.40;63.00;;;;;;5052802;28;20285;-76
2022/05/10 01:24:40;;;;;;;11.77;2.63;;;21.50;63.60;;;;;;5072547;28;20522;-77
2022/05/10 01:27:44;;;;;;;10.17;2.60;;;21.50;63.40;;;;;;5073047;28;20167;-80
2022/05/10 01:30:16;;;;;;;7.73;1.70;;;21.50;64.00;;;;;;5068584;28;20224;-77
2022/05/10 01:35:52;;;;;;;9.03;1.70;;;21.50;64.50;;;;;;5062170;28;20198;-74
2022/05/10 01:38:46;;;;;;;9.23;1.57;;;21.50;65.40;;;;;;5070557;28;20657;-75
2022/05/10 01:41:40;;;;;;;9.23;1.70;;;21.30;65.50;;;;;;5069991;28;20176;-75
2022/05/10 01:44:19;;;;;;;9.27;1.80;;;21.30;66.50;;;;;;5071596;28;20183;-73
2022/05/10 01:46:50;;;;;;;10.70;2.37;;;21.00;65.70;;;;;;5072431;28;20202;-73
2022/05/10 01:49:36;;;;;;;12.63;1.90;;;20.90;65.00;;;;;;5069571;28;20203;-73
2022/05/10 01:52:13;;;;;;;12.17;3.90;;;20.70;65.90;;;;;;5072352;28;20211;-75
2022/05/10 01:54:41;;;;;;;9.93;3.50;;;20.80;67.00;;;;;;5071215;28;20167;-74
2022/05/10 01:57:12;;;;;;;8.23;2.77;;;20.70;67.30;;;;;;5071554;28;20183;-75
2022/05/10 01:59:46;;;;;;;9.30;1.70;;;20.80;65.60;;;;;;5072530;28;20179;-75
2022/05/10 02:02:16;;;;;;;11.47;2.30;;;20.80;65.80;;;;;;5074240;28;20176;-75
2022/05/10 02:04:45;;;;;;;6.20;1.67;;;20.90;65.20;;;;;;5076422;28;20250;-76
2022/05/10 02:07:18;;;;;;;7.80;3.10;;;21.10;65.90;;;;;;5076017;28;20171;-76
2022/05/10 02:10:08;;;;;;;10.33;2.57;;;21.20;65.50;;;;;;5076014;28;20255;-77
2022/05/10 02:12:43;;;;;;;11.37;1.80;;;21.30;65.50;;;;;;5076431;28;20171;-76
2022/05/10 02:15:25;;;;;;;6.63;1.90;;;21.60;63.90;;;;;;5076347;28;20167;-77
2022/05/10 02:18:13;;;;;;;10.30;2.03;;;21.40;64.70;;;;;;5075101;28;20214;-72
2022/05/10 02:20:50;;;;;;;9.97;2.10;;;21.30;65.00;;;;;;5075724;28;20199;-70
2022/05/10 02:23:26;;;;;;;5.73;1.70;;;21.10;64.90;;;;;;5075514;28;20203;-73
2022/05/10 02:26:02;;;;;;;14.77;2.60;;;20.90;63.70;;;;;;5074081;28;20219;-74
2022/05/10 02:29:02;;;;;;;9.33;2.43;;;21.00;64.60;;;;;;5072324;28;20179;-77
2022/05/10 02:34:34;;;;;;;8.33;1.73;;;20.90;65.60;;;;;;5069739;28;20561;-74
2022/05/10 02:37:01;;;;;;;14.50;2.27;;;21.10;66.30;;;;;;5073550;28;20175;-75
2022/05/10 02:39:29;;;;;;;10.03;2.43;;;21.10;65.30;;;;;;5074354;28;20235;-75
2022/05/10 02:41:58;;;;;;;16.50;2.37;;;21.20;66.10;;;;;;5074336;28;20659;-73
2022/05/10 02:44:25;;;;;;;14.00;2.03;;;21.20;65.60;;;;;;5068885;28;20195;-76
2022/05/10 02:46:53;;;;;;;16.67;2.53;;;21.20;65.40;;;;;;5072663;28;20190;-74
2022/05/10 02:49:20;;;;;;;16.03;2.80;;;21.10;64.40;;;;;;5072062;28;20298;-76
2022/05/10 02:51:47;;;;;;;8.47;2.30;;;21.00;64.30;;;;;;5069099;28;20677;-73
2022/05/10 02:54:15;;;;;;;8.20;1.77;;;21.00;65.50;;;;;;5066278;28;20172;-73
2022/05/10 02:56:43;;;;;;;6.60;2.30;;;20.90;65.40;;;;;;5069569;28;20277;-74
2022/05/10 02:59:17;;;;;;;6.10;1.73;;;20.80;65.00;;;;;;5070261;28;20179;-75
2022/05/10 03:02:14;;;;;;;7.87;1.97;;;20.70;65.50;;;;;;5073163;28;20182;-73
2022/05/10 03:04:51;;;;;;;6.87;1.70;;;20.80;65.70;;;;;;5067475;28;20195;-73
2022/05/10 03:07:18;;;;;;;11.13;2.50;;;20.50;65.70;;;;;;5073389;28;20181;-75
2022/05/10 03:09:46;;;;;;;5.23;1.60;;;20.50;66.10;;;;;;5074257;28;20175;-74
2022/05/10 03:12:13;;;;;;;8.33;1.67;;;20.60;65.70;;;;;;5074508;28;20215;-74
2022/05/10 03:14:41;;;;;;;11.33;1.83;;;20.70;65.40;;;;;;5073354;28;20177;-75
2022/05/10 03:17:10;;;;;;;6.63;1.80;;;20.60;66.00;;;;;;5070428;28;20270;-75
2022/05/10 03:19:39;;;;;;;10.93;1.90;;;20.60;66.70;;;;;;5072189;28;20695;-73
2022/05/10 03:22:07;;;;;;;10.87;2.13;;;20.70;66.70;;;;;;5071251;28;20595;-72
2022/05/10 03:24:35;;;;;;;9.83;1.77;;;20.70;65.00;;;;;;5070176;28;20290;-72
2022/05/10 03:27:05;;;;;;;7.60;2.40;;;20.80;64.80;;;;;;5076458;28;20709;-74
2022/05/10 03:29:33;;;;;;;10.73;2.20;;;20.90;64.70;;;;;;5072887;28;20195;-73
2022/05/10 03:32:00;;;;;;;12.70;1.93;;;21.40;63.40;;;;;;5073153;28;20621;-75
2022/05/10 03:37:13;;;;;;;13.13;2.10;;;22.20;59.20;;;;;;5068363;28;20555;-74
2022/05/10 03:39:41;;;;;;;7.33;1.50;;;22.50;58.70;;;;;;5071257;28;20195;-73
2022/05/10 03:42:09;;;;;;;10.33;1.80;;;23.10;57.30;;;;;;5067149;28;20208;-72
2022/05/10 03:44:37;;;;;;;10.07;1.80;;;23.10;56.70;;;;;;5072781;28;20195;-74
2022/05/10 03:47:08;;;;;;;7.30;1.63;;;23.50;55.00;;;;;;5070348;28;20183;-72
2022/05/10 03:49:36;;;;;;;9.20;1.77;;;23.70;55.20;;;;;;5066385;28;20241;-73
2022/05/10 03:52:04;;;;;;;10.00;1.60;;;24.10;54.80;;;;;;5067495;28;20349;-74
2022/05/10 03:54:31;;;;;;;6.00;1.50;;;24.00;54.20;;;;;;5067175;28;20179;-76
2022/05/10 03:56:59;;;;;;;11.50;1.40;;;23.80;55.10;;;;;;5068387;28;20186;-73
2022/05/10 03:59:27;;;;;;;9.27;1.63;;;23.50;55.10;;;;;;5071399;28;20279;-76
2022/05/10 04:01:54;;;;;;;6.47;1.63;;;23.60;55.10;;;;;;5072927;28;20187;-75
2022/05/10 04:04:22;;;;;;;9.53;1.77;;;24.00;54.70;;;;;;5071238;28;20536;-75
2022/05/10 04:06:49;;;;;;;4.73;1.20;;;23.80;54.60;;;;;;5071603;28;20187;-76
2022/05/10 04:09:17;;;;;;;9.37;2.00;;;24.20;53.20;;;;;;5069522;28;20187;-74
2022/05/10 04:11:46;;;;;;;6.13;1.43;;;23.80;54.10;;;;;;5071938;28;20225;-77
2022/05/10 04:14:13;;;;;;;7.30;2.03;;;23.10;56.60;;;;;;5068480;28;20695;-74
2022/05/10 04:16:41;;;;;;;5.13;1.27;;;23.30;56.00;;;;;;5070241;28;20591;-74
2022/05/10 04:19:08;;;;;;;9.40;1.60;;;23.10;55.80;;;;;;5065136;28;20180;-74
2022/05/10 04:21:35;;;;;;;7.43;1.50;;;23.30;56.00;;;;;;5071440;28;20179;-74
2022/05/10 04:24:03;;;;;;;5.50;1.33;;;23.80;53.30;;;;;;5071872;28;20558;-75
2022/05/10 04:26:30;;;;;;;7.63;1.50;;;24.00;52.60;;;;;;5072003;28;20182;-71
2022/05/10 04:28:58;;;;;;;7.50;1.50;;;24.10;53.50;;;;;;5072067;28;20183;-76
2022/05/10 04:31:26;;;;;;;5.87;1.47;;;24.10;53.10;;;;;;5072133;28;20235;-73
2022/05/10 04:33:53;;;;;;;4.80;1.10;;;23.80;54.30;;;;;;5066752;28;20176;-74
2022/05/10 04:36:23;;;;;;;6.07;1.50;;;23.90;53.30;;;;;;5069732;28;20199;-74
2022/05/10 04:38:50;;;;;;;7.03;1.63;;;23.20;54.90;;;;;;5071276;28;20181;-74
2022/05/10 04:41:33;;;;;;;5.10;1.00;;;23.20;55.10;;;;;;5067410;28;20216;-73
2022/05/10 04:44:09;;;;;;;3.83;1.37;;;22.90;55.20;;;;;;5070623;28;20222;-73
2022/05/10 04:46:38;;;;;;;5.43;1.43;;;22.80;56.60;;;;;;5072870;28;20162;-73
2022/05/10 04:49:07;;;;;;;7.17;1.63;;;23.20;56.10;;;;;;5072735;28;20665;-75
2022/05/10 04:51:35;;;;;;;6.13;1.30;;;22.90;56.50;;;;;;5072536;28;20661;-72
2022/05/10 04:54:03;;;;;;;5.50;1.47;;;23.50;55.00;;;;;;5075643;28;20171;-72
2022/05/10 04:56:31;;;;;;;3.90;1.10;;;23.70;53.00;;;;;;5085373;28;20167;-80
2022/05/10 04:58:58;;;;;;;12.03;1.33;;;24.00;53.70;;;;;;5085123;28;20186;-76
2022/05/10 05:01:30;;;;;;;4.50;1.00;;;24.50;51.90;;;;;;5070924;28;20554;-77
2022/05/10 05:04:00;;;;;;;6.77;1.23;;;24.40;51.30;;;;;;5068173;28;20190;-77
2022/05/10 05:06:28;;;;;;;3.50;1.27;;;25.00;49.70;;;;;;5072665;28;20179;-76
2022/05/10 05:08:56;;;;;;;8.60;1.43;;;25.00;50.60;;;;;;5071269;28;20259;-74
2022/05/10 05:11:24;;;;;;;6.73;1.43;;;24.40;50.60;;;;;;5071902;28;20228;-74
2022/05/10 05:13:52;;;;;;;8.60;1.80;;;23.30;53.30;;;;;;5072617;28;20226;-73
2022/05/10 05:16:26;;;;;;;7.40;1.33;;;22.90;55.00;;;;;;5071377;28;20179;-75
2022/05/10 05:18:56;;;;;;;8.07;1.87;;;22.60;55.00;;;;;;5059469;28;20191;-73
2022/05/10 05:21:23;;;;;;;8.13;1.20;;;23.30;53.80;;;;;;5072294;28;20182;-75
2022/05/10 05:23:54;;;;;;;7.70;1.50;;;23.30;53.60;;;;;;5071533;28;20187;-78
2022/05/10 05:26:22;;;;;;;7.13;1.50;;;23.80;52.30;;;;;;5072014;28;20582;-76
2022/05/10 05:28:50;;;;;;;6.83;1.50;;;23.90;52.10;;;;;;5072570;28;20175;-75
2022/05/10 05:31:17;;;;;;;6.87;1.27;;;24.30;51.50;;;;;;5070566;28;20569;-75
2022/05/10 05:33:45;;;;;;;6.30;1.43;;;24.80;51.40;;;;;;5071728;28;20175;-76
2022/05/10 05:36:13;;;;;;;4.63;1.20;;;23.90;52.80;;;;;;5072269;28;20182;-73
2022/05/10 05:38:40;;;;;;;7.77;1.83;;;23.00;54.90;;;;;;5076277;28;20329;-74
2022/05/10 05:41:08;;;;;;;13.90;2.00;;;22.10;57.40;;;;;;5076256;28;20176;-73
2022/05/10 05:43:38;;;;;;;9.07;1.90;;;21.80;58.70;;;;;;5075862;28;20360;-76
2022/05/10 05:46:06;;;;;;;7.63;2.00;;;21.80;59.40;;;;;;5074380;28;20186;-76
2022/05/10 05:48:33;;;;;;;4.63;1.50;;;21.70;60.20;;;;;;5076436;28;20550;-74
2022/05/10 05:51:01;;;;;;;11.10;2.03;;;21.50;60.50;;;;;;5076189;28;20226;-74
2022/05/10 05:53:31;;;;;;;7.70;1.33;;;21.30;60.30;;;;;;5074446;28;20194;-77
2022/05/10 05:56:05;;;;;;;5.30;1.40;;;21.70;59.20;;;;;;5075818;28;20179;-75
2022/05/10 05:58:33;;;;;;;5.60;1.13;;;22.20;56.80;;;;;;5076185;28;20179;-75
2022/05/10 06:01:00;;;;;;;10.43;1.47;;;22.10;55.70;;;;;;5075521;28;20180;-75
2022/05/10 06:03:31;;;;;;;6.80;1.63;;;21.70;57.90;;;;;;5076130;28;20176;-76
2022/05/10 06:05:58;;;;;;;4.60;1.30;;;21.50;58.50;;;;;;5074733;28;20648;-75
2022/05/10 06:08:25;;;;;;;7.37;1.40;;;21.00;59.20;;;;;;5075092;28;20182;-75
2022/05/10 06:10:54;;;;;;;9.10;1.77;;;20.90;60.30;;;;;;5075498;28;20198;-73
2022/05/10 06:13:22;;;;;;;7.63;1.83;;;20.70;61.30;;;;;;5075710;28;20190;-75
2022/05/10 06:15:50;;;;;;;6.67;1.60;;;20.70;61.30;;;;;;5075369;28;20179;-74
2022/05/10 06:18:17;;;;;;;5.10;1.50;;;20.60;61.80;;;;;;5075596;28;20244;-74
2022/05/10 06:20:45;;;;;;;8.23;1.50;;;20.50;62.20;;;;;;5075652;28;20215;-75
2022/05/10 06:23:12;;;;;;;4.00;1.27;;;20.50;61.80;;;;;;5074993;28;20179;-74
2022/05/10 06:25:39;;;;;;;6.63;1.77;;;20.40;61.70;;;;;;5075283;28;20618;-75
2022/05/10 06:28:07;;;;;;;6.93;1.33;;;20.40;62.10;;;;;;5074677;28;20249;-74
2022/05/10 06:30:34;;;;;;;5.33;1.30;;;20.30;62.50;;;;;;5074887;28;20298;-75
2022/05/10 06:33:02;;;;;;;10.77;1.70;;;20.30;61.90;;;;;;5075627;28;20167;-74
2022/05/10 06:35:30;;;;;;;5.70;1.33;;;20.30;61.70;;;;;;5075654;28;20167;-76
2022/05/10 06:40:44;;;;;;;3.17;1.20;;;20.20;62.70;;;;;;5075508;28;20182;-76
2022/05/10 06:43:16;;;;;;;6.37;1.50;;;20.10;63.20;;;;;;5072724;28;20223;-75
2022/05/10 06:45:44;;;;;;;6.10;1.60;;;19.90;63.00;;;;;;5089291;28;20269;-73
2022/05/10 06:48:12;;;;;;;3.73;1.47;;;19.80;62.50;;;;;;5092180;28;20187;-74
2022/05/10 06:50:41;;;;;;;10.47;1.67;;;19.70;62.30;;;;;;5073980;28;20199;-73
2022/05/10 06:53:08;;;;;;;7.03;2.00;;;19.70;62.20;;;;;;5075102;28;20179;-75
2022/05/10 06:55:38;;;;;;;7.07;1.73;;;19.60;62.70;;;;;;5074974;28;20182;-74
2022/05/10 06:58:06;;;;;;;8.63;1.93;;;19.50;63.20;;;;;;5074711;28;20537;-73
2022/05/10 07:00:36;;;;;;;7.70;1.40;;;19.50;63.50;;;;;;5075123;28;20183;-70
2022/05/10 07:03:12;;;;;;;6.47;1.50;;;19.40;63.20;;;;;;5075845;28;20167;-76
2022/05/10 07:05:42;;;;;;;5.07;1.40;;;19.40;63.20;;;;;;5075330;28;20160;-72
2022/05/10 07:08:10;;;;;;;9.70;1.90;;;19.40;63.70;;;;;;5075173;28;20221;-75
2022/05/10 07:10:37;;;;;;;5.67;1.30;;;19.30;63.80;;;;;;5074589;28;20203;-74
2022/05/10 07:13:04;;;;;;;9.17;1.83;;;19.30;64.50;;;;;;5075028;28;20260;-74
2022/05/10 07:15:32;;;;;;;11.30;2.33;;;19.30;64.60;;;;;;5074902;28;20168;-75
2022/05/10 07:17:59;;;;;;;4.67;1.37;;;19.30;64.70;;;;;;5074334;28;20163;-73
2022/05/10 07:20:26;;;;;;;65.70;43.87;;;19.20;64.40;;;;;;5074918;28;20233;-72
2022/05/10 07:22:54;;;;;;;13.07;3.93;;;19.30;64.40;;;;;;5074371;28;20186;-75
2022/05/10 07:25:25;;;;;;;9.33;1.70;;;19.30;64.70;;;;;;5074495;28;20209;-73
2022/05/10 07:27:53;;;;;;;9.87;1.90;;;19.20;64.50;;;;;;5074512;28;20175;-72
2022/05/10 07:30:22;;;;;;;9.23;2.00;;;19.20;64.10;;;;;;5074444;28;20198;-72
2022/05/10 07:32:50;;;;;;;7.63;1.50;;;19.20;64.20;;;;;;5074824;28;20262;-76
2022/05/10 07:36:23;;;;;;;8.60;1.40;;;19.20;64.20;;;;;;5074550;28;20496;-74
2022/05/10 07:38:07;;;;;;;10.60;1.63;;;19.20;64.40;;;;;;5074218;28;20167;-73
2022/05/10 07:40:34;;;;;;;10.47;1.53;;;19.10;65.00;;;;;;5074025;28;20522;-73
2022/05/10 07:43:01;;;;;;;13.40;1.83;;;19.00;65.50;;;;;;5073897;28;20225;-73
2022/05/10 07:45:29;;;;;;;5.27;1.97;;;19.00;65.20;;;;;;5073141;28;20180;-75
2022/05/10 07:47:56;;;;;;;8.57;1.90;;;18.90;65.70;;;;;;5060627;28;20183;-73
2022/05/10 07:50:24;;;;;;;6.37;1.73;;;18.80;65.50;;;;;;5072944;28;20551;-72
2022/05/10 07:52:51;;;;;;;7.13;2.50;;;18.80;65.60;;;;;;5077624;28;20179;-73
2022/05/10 07:55:19;;;;;;;9.53;2.20;;;18.90;64.20;;;;;;5076824;28;20252;-73
2022/05/10 07:57:46;;;;;;;9.57;1.83;;;18.90;64.20;;;;;;5073298;28;20187;-75
2022/05/10 08:00:14;;;;;;;7.90;1.47;;;18.90;63.90;;;;;;5073162;28;20687;-73
2022/05/10 08:02:43;;;;;;;6.30;1.47;;;19.00;62.40;;;;;;5073685;28;20164;-73
2022/05/10 08:05:23;;;;;;;5.93;1.40;;;18.90;62.80;;;;;;5073583;28;20228;-73
2022/05/10 08:07:51;;;;;;;10.00;1.83;;;19.00;62.60;;;;;;5073237;28;20171;-74
2022/05/10 08:10:21;;;;;;;6.20;1.60;;;18.90;62.80;;;;;;5073540;28;20225;-75
2022/05/10 08:12:49;;;;;;;13.00;3.87;;;18.90;63.40;;;;;;5073648;28;20228;-74
2022/05/10 08:15:16;;;;;;;15.20;6.37;;;18.90;64.20;;;;;;5072484;28;20168;-77
2022/05/10 08:17:44;;;;;;;10.23;3.63;;;18.80;64.60;;;;;;5071590;28;20255;-75
2022/05/10 08:20:11;;;;;;;10.97;1.77;;;18.80;64.90;;;;;;5072117;28;20530;-76
2022/05/10 08:22:39;;;;;;;7.50;1.77;;;18.80;64.10;;;;;;5072333;28;20275;-76
2022/05/10 08:25:06;;;;;;;6.47;1.47;;;18.80;64.20;;;;;;5073681;28;20170;-75
2022/05/10 08:27:34;;;;;;;8.50;1.50;;;18.90;63.70;;;;;;5073093;28;20180;-75
2022/05/10 08:30:01;;;;;;;6.57;1.70;;;18.80;63.80;;;;;;5072904;28;20179;-77
2022/05/10 08:32:28;;;;;;;9.33;2.10;;;18.80;63.80;;;;;;5073220;28;20179;-75
2022/05/10 08:34:56;;;;;;;4.67;1.47;;;18.80;63.70;;;;;;5073258;28;20225;-75
2022/05/10 08:37:23;;;;;;;5.70;1.73;;;18.80;64.10;;;;;;5072226;28;20709;-76
2022/05/10 08:39:51;;;;;;;5.33;1.50;;;18.80;64.30;;;;;;5072783;28;20179;-74
2022/05/10 08:42:28;;;;;;;3.30;1.37;;;18.80;64.20;;;;;;5070699;28;20223;-72
2022/05/10 08:45:01;;;;;;;9.40;2.07;;;18.80;63.40;;;;;;5053299;28;20175;-73
2022/05/10 08:47:29;;;;;;;5.60;1.57;;;18.80;63.70;;;;;;5053086;28;20176;-74
2022/05/10 08:50:06;;;;;;;8.53;1.80;;;18.80;62.90;;;;;;5052989;28;20238;-74
2022/05/10 08:52:41;;;;;;;3.17;1.53;;;18.80;62.30;;;;;;5052854;28;20193;-73
2022/05/10 08:55:11;;;;;;;7.67;1.50;;;18.80;61.40;;;;;;5051624;28;20175;-73
2022/05/10 08:58:06;;;;;;;5.80;1.60;;;18.80;61.50;;;;;;5063393;28;20186;-74
2022/05/10 09:00:33;;;;;;;7.30;1.73;;;18.70;61.90;;;;;;5082056;28;20585;-74
2022/05/10 09:03:09;;;;;;;8.97;2.77;;;18.70;61.50;;;;;;5072315;28;20181;-75
2022/05/10 09:05:42;;;;;;;10.60;3.30;;;18.60;61.80;;;;;;5072556;28;20170;-73
2022/05/10 09:08:23;;;;;;;5.20;2.70;;;18.60;61.60;;;;;;5071368;28;20584;-74
2022/05/10 09:10:59;;;;;;;4.87;1.77;;;18.70;61.10;;;;;;5069315;28;20700;-73
2022/05/10 09:13:27;;;;;;;10.27;2.03;;;18.70;61.40;;;;;;5071567;28;20182;-72
2022/05/10 09:16:09;;;;;;;9.57;1.87;;;18.60;60.80;;;;;;5072501;28;20178;-73
2022/05/10 09:18:49;;;;;;;3.53;1.33;;;18.80;60.30;;;;;;5054954;28;20182;-75
2022/05/10 09:21:24;;;;;;;6.47;1.67;;;18.60;60.90;;;;;;5067261;28;20183;-73
2022/05/10 09:24:16;;;;;;;5.70;1.60;;;18.60;61.30;;;;;;5071991;28;20182;-75
2022/05/10 09:26:48;;;;;;;9.13;2.00;;;18.50;60.40;;;;;;5061009;28;20188;-73
2022/05/10 09:29:36;;;;;;;7.07;1.90;;;18.50;60.50;;;;;;5061980;28;20187;-75
2022/05/10 09:35:16;;;;;;;17.37;9.93;;;18.40;61.30;;;;;;5072427;28;20190;-73
2022/05/10 09:37:44;;;;;;;7.97;2.60;;;18.40;61.30;;;;;;5071617;28;20186;-75
2022/05/10 09:40:47;;;;;;;5.13;1.90;;;18.40;61.60;;;;;;5072008;28;20183;-75
2022/05/10 09:43:25;;;;;;;10.47;2.23;;;18.30;61.90;;;;;;5070787;28;20232;-73
2022/05/10 09:46:21;;;;;;;4.77;2.23;;;18.30;62.10;;;;;;5071167;28;20174;-73
2022/05/10 09:48:49;;;;;;;7.93;2.20;;;18.30;61.10;;;;;;5063186;28;20180;-72
2022/05/10 09:51:31;;;;;;;10.50;2.30;;;18.50;60.00;;;;;;5072957;28;20203;-72
2022/05/10 09:54:02;;;;;;;11.27;2.50;;;18.40;60.40;;;;;;5052139;28;20275;-73
2022/05/10 09:56:36;;;;;;;6.33;2.10;;;18.40;60.70;;;;;;5067968;28;20182;-72
2022/05/10 09:59:06;;;;;;;10.57;2.47;;;18.40;61.20;;;;;;5070371;28;20237;-75
2022/05/10 10:01:43;;;;;;;8.90;3.30;;;18.30;61.80;;;;;;5070846;28;20182;-72
2022/05/10 10:04:35;;;;;;;11.77;3.10;;;18.30;61.60;;;;;;5070667;28;20584;-73
2022/05/10 10:07:06;;;;;;;7.10;2.47;;;18.30;61.70;;;;;;5070936;28;20206;-73
2022/05/10 10:09:45;;;;;;;8.27;2.50;;;18.30;62.10;;;;;;5052306;28;20164;-73
2022/05/10 10:12:35;;;;;;;6.70;1.80;;;18.20;62.30;;;;;;5062921;28;20215;-74
2022/05/10 10:15:16;;;;;;;7.87;1.80;;;18.30;61.70;;;;;;5061617;28;20186;-72
2022/05/10 10:18:09;;;;;;;7.90;1.87;;;18.20;62.00;;;;;;5071682;28;20224;-73
2022/05/10 10:20:45;;;;;;;10.57;1.70;;;18.20;61.90;;;;;;5072017;28;20182;-74
2022/05/10 10:23:37;;;;;;;6.17;1.70;;;18.10;62.10;;;;;;5073627;28;20521;-75
2022/05/10 10:26:28;;;;;;;7.73;1.50;;;18.20;61.80;;;;;;5074993;28;20179;-72
2022/05/10 10:29:22;;;;;;;7.87;2.10;;;18.10;62.40;;;;;;5061545;28;20206;-75
2022/05/10 10:32:13;;;;;;;7.10;1.60;;;18.00;62.90;;;;;;5065136;28;20219;-74
2022/05/10 10:34:48;;;;;;;8.67;1.53;;;18.00;63.00;;;;;;5068325;28;20726;-74
2022/05/10 10:37:26;;;;;;;6.27;1.47;;;18.00;63.10;;;;;;5073130;28;20743;-74
2022/05/10 10:40:17;;;;;;;9.17;1.73;;;18.00;63.70;;;;;;5071595;28;20182;-74
2022/05/10 10:42:57;;;;;;;7.77;1.93;;;18.00;63.80;;;;;;5083991;28;20222;-74
2022/05/10 10:45:47;;;;;;;9.23;1.80;;;18.00;63.60;;;;;;5065559;28;20178;-72
2022/05/10 10:48:41;;;;;;;5.97;1.33;;;18.00;63.10;;;;;;5074085;28;20225;-74
2022/05/10 10:51:09;;;;;;;7.57;1.90;;;18.00;63.40;;;;;;5072728;28;20211;-74
2022/05/10 10:53:38;;;;;;;6.37;1.67;;;18.00;62.90;;;;;;5085069;28;20671;-73
2022/05/10 10:56:17;;;;;;;11.73;2.10;;;18.00;62.40;;;;;;5076285;28;20174;-74
2022/05/10 10:59:18;;;;;;;5.23;1.80;;;18.00;62.50;;;;;;5073012;28;20600;-72
2022/05/10 11:02:17;;;;;;;6.40;1.60;;;18.00;62.50;;;;;;5073811;28;20217;-75
2022/05/10 11:05:21;;;;;;;5.20;1.53;;;18.00;62.70;;;;;;5071864;28;20672;-73
2022/05/10 11:08:21;;;;;;;5.43;1.43;;;18.00;62.90;;;;;;5081570;28;20291;-74
2022/05/10 11:11:00;;;;;;;6.67;1.40;;;17.90;62.70;;;;;;5074838;28;20679;-74
2022/05/10 11:13:39;;;;;;;10.93;1.60;;;18.00;62.20;;;;;;5079485;28;20205;-72
2022/05/10 11:16:20;;;;;;;6.97;1.67;;;18.00;62.50;;;;;;5080195;28;20264;-71
2022/05/10 11:18:58;;;;;;;3.37;1.20;;;18.00;61.20;;;;;;5086802;28;20192;-73
2022/05/10 11:21:46;;;;;;;7.23;1.80;;;18.10;61.10;;;;;;5092073;28;20534;-73
2022/05/10 11:24:27;;;;;;;4.00;1.33;;;18.10;60.90;;;;;;5074022;28;20185;-74
2022/05/10 11:27:18;;;;;;;4.10;1.30;;;18.20;60.90;;;;;;5079338;28;20186;-73
2022/05/10 11:30:18;;;;;;;5.50;1.40;;;18.20;61.10;;;;;;5067678;28;20707;-72
2022/05/10 11:33:18;;;;;;;5.73;1.67;;;18.10;61.80;;;;;;5076475;28;20198;-73
2022/05/10 11:35:51;;;;;;;4.20;1.23;;;18.10;62.20;;;;;;5069409;28;20257;-73
2022/05/10 11:38:49;;;;;;;4.10;1.40;;;18.10;62.40;;;;;;5084869;28;20657;-74
2022/05/10 11:41:34;;;;;;;6.13;1.30;;;18.10;62.50;;;;;;5066062;28;20179;-74
2022/05/10 11:44:43;;;;;;;4.57;1.17;;;18.20;62.50;;;;;;5087981;28;20218;-73
2022/05/10 11:47:49;;;;;;;3.77;1.33;;;18.20;62.50;;;;;;5057394;28;20186;-73
2022/05/10 11:54:29;;;;;;;7.80;1.60;;;18.30;62.80;;;;;;5054594;28;20256;-73
2022/05/10 11:56:58;;;;;;;8.60;1.33;;;18.40;62.40;;;;;;5053882;28;20537;-72
2022/05/10 11:59:32;;;;;;;7.67;1.87;;;18.40;62.00;;;;;;5057986;28;20217;-72
2022/05/10 12:02:01;;;;;;;14.47;2.27;;;18.50;62.10;;;;;;5072901;28;20179;-71
2022/05/10 12:04:48;;;;;;;5.50;1.17;;;18.50;61.70;;;;;;5074577;28;20191;-70
2022/05/10 12:07:22;;;;;;;6.00;1.23;;;18.60;61.30;;;;;;5070733;28;20201;-71
2022/05/10 12:10:03;;;;;;;7.20;2.43;;;18.70;61.60;;;;;;5060166;28;20277;-73
2022/05/10 12:12:34;;;;;;;6.97;2.90;;;18.60;62.00;;;;;;5076533;28;20214;-72
2022/05/10 12:21:28;;;;;;;6.90;1.33;;;18.70;63.00;;;;;;5080002;28;20182;-72
2022/05/10 12:24:25;;;;;;;6.93;1.50;;;18.60;63.20;;;;;;5061875;28;20642;-73
2022/05/10 12:26:55;;;;;;;7.17;1.27;;;18.70;62.80;;;;;;5077250;28;20191;-72
2022/05/10 12:29:38;;;;;;;8.33;1.40;;;18.70;62.60;;;;;;5055639;28;20179;-71
2022/05/10 12:32:20;;;;;;;7.10;1.20;;;18.80;62.30;;;;;;5062958;28;20213;-71
2022/05/10 12:34:47;;;;;;;8.07;1.20;;;18.80;62.20;;;;;;5072728;28;20179;-74
2022/05/10 12:37:26;;;;;;;3.37;0.93;;;18.80;62.10;;;;;;5073412;28;20591;-73
2022/05/10 12:39:56;;;;;;;11.73;2.07;;;18.80;61.80;;;;;;5073272;28;20217;-73
2022/05/10 12:42:38;;;;;;;7.97;1.30;;;18.80;62.30;;;;;;5072921;28;20229;-71
2022/05/10 12:45:47;;;;;;;4.47;1.20;;;18.80;61.90;;;;;;5064344;28;20187;-73
2022/05/10 12:48:43;;;;;;;3.47;1.10;;;18.80;62.30;;;;;;5070828;28;20171;-72
2022/05/10 12:51:32;;;;;;;3.87;1.37;;;18.80;62.30;;;;;;5072953;28;20194;-70
2022/05/10 12:54:19;;;;;;;5.67;1.20;;;18.90;62.10;;;;;;5072004;28;20175;-71
2022/05/10 12:57:07;;;;;;;9.73;1.60;;;18.80;62.10;;;;;;5072680;28;20190;-70
2022/05/10 13:00:00;;;;;;;7.33;1.60;;;18.80;62.30;;;;;;5053172;28;20172;-74
2022/05/10 13:02:31;;;;;;;4.03;1.37;;;18.80;62.20;;;;;;5056495;28;20179;-72
2022/05/10 13:05:03;;;;;;;5.73;1.33;;;18.80;62.20;;;;;;5072457;28;20186;-74
2022/05/10 13:07:54;;;;;;;5.00;1.50;;;18.80;62.20;;;;;;5072840;28;20181;-71
2022/05/10 13:10:23;;;;;;;6.20;1.20;;;18.80;62.30;;;;;;5073119;28;20174;-73
2022/05/10 13:13:01;;;;;;;5.63;1.80;;;18.80;62.30;;;;;;5071963;28;20657;-71
2022/05/10 13:15:30;;;;;;;7.20;1.30;;;18.80;62.60;;;;;;5072244;28;20183;-72
2022/05/10 13:17:59;;;;;;;5.70;1.10;;;18.80;62.90;;;;;;5072780;28;20175;-72
2022/05/10 13:20:30;;;;;;;4.63;1.20;;;18.80;65.00;;;;;;5072099;28;20199;-73
2022/05/10 13:22:59;;;;;;;8.23;1.50;;;18.80;68.30;;;;;;5072813;28;20224;-73
2022/05/10 13:25:39;;;;;;;10.83;1.70;;;18.70;73.60;;;;;;5072839;28;20179;-74
2022/05/10 13:28:20;;;;;;;7.53;1.70;;;18.50;75.80;;;;;;5072374;28;20168;-70
2022/05/10 13:30:59;;;;;;;6.70;1.30;;;18.20;76.60;;;;;;5072209;28;20272;-73
2022/05/10 13:33:35;;;;;;;7.70;1.40;;;18.00;75.60;;;;;;5079750;28;20192;-73
2022/05/10 13:36:06;;;;;;;6.93;1.60;;;17.90;75.70;;;;;;5072092;28;20210;-73
2022/05/10 13:38:39;;;;;;;6.33;1.60;;;17.80;77.00;;;;;;5072781;28;20175;-74
2022/05/10 13:41:13;;;;;;;7.53;1.60;;;17.70;78.40;;;;;;5069401;28;20193;-74
2022/05/10 13:43:43;;;;;;;14.03;1.57;;;17.50;79.80;;;;;;5071441;28;20245;-77
2022/05/10 13:46:44;;;;;;;5.10;1.50;;;17.40;80.90;;;;;;5070568;28;20676;-77